sensor_id;sensor_type;location;lat;lon;timestamp;P1;durP1;ratioP1;P2;durP2;ratioP2
24147;SDS011;12309;51.450;-2.624;2023-04-08T00:00:04;10.70;;;5.63;;
24147;SDS011;12309;51.450;-2.624;2023-04-08T00:02:32;10.27;;;4.53;;
24147;SDS011;12309;51.450;-2.624;2023-04-08T00:04:57;8.13;;;4.17;;
24147;SDS011;12309;51.450;-2.624;2023-04-08T00:07:23;10.90;;;4.50;;
24147;SDS011;12309;51.450;-2.624;2023-04-08T00:09:49;11.97;;;4.47;;
24147;SDS011;12309;51.450;-2.624;2023-04-08T00:12:15;11.27;;;3.67;;
24147;SDS011;12309;51.450;-2.624;2023-04-08T00:14:41;8.90;;;3.97;;
24147;SDS011;12309;51.450;-2.624;2023-04-08T00:17:06;8.07;;;4.13;;
24147;SDS011;12309;51.450;-2.624;2023-04-08T00:19:32;8.67;;;4.50;;
24147;SDS011;12309;51.450;-2.624;2023-04-08T00:21:58;11.63;;;4.90;;
24147;SDS011;12309;51.450;-2.624;2023-04-08T00:24:24;11.30;;;5.33;;
24147;SDS011;12309;51.450;-2.624;2023-04-08T00:26:50;10.33;;;5.33;;
24147;SDS011;12309;51.450;-2.624;2023-04-08T00:29:16;9.70;;;4.93;;
24147;SDS011;12309;51.450;-2.624;2023-04-08T00:31:42;11.03;;;5.87;;
24147;SDS011;12309;51.450;-2.624;2023-04-08T00:34:07;11.20;;;4.63;;
24147;SDS011;12309;51.450;-2.624;2023-04-08T00:36:33;16.10;;;4.80;;
24147;SDS011;12309;51.450;-2.624;2023-04-08T00:39:00;8.40;;;4.10;;
24147;SDS011;12309;51.450;-2.624;2023-04-08T00:41:26;13.77;;;4.80;;
24147;SDS011;12309;51.450;-2.624;2023-04-08T00:43:52;11.30;;;4.70;;
24147;SDS011;12309;51.450;-2.624;2023-04-08T00:46:18;12.13;;;5.60;;
24147;SDS011;12309;51.450;-2.624;2023-04-08T00:48:45;11.70;;;5.00;;
24147;SDS011;12309;51.450;-2.624;2023-04-08T00:51:10;13.93;;;5.90;;
24147;SDS011;12309;51.450;-2.624;2023-04-08T00:53:36;16.23;;;5.90;;
24147;SDS011;12309;51.450;-2.624;2023-04-08T00:56:02;15.70;;;5.53;;
24147;SDS011;12309;51.450;-2.624;2023-04-08T00:58:28;15.03;;;5.40;;
24147;SDS011;12309;51.450;-2.624;2023-04-08T01:00:57;13.77;;;5.77;;
24147;SDS011;12309;51.450;-2.624;2023-04-08T01:03:36;14.27;;;5.77;;
24147;SDS011;12309;51.450;-2.624;2023-04-08T01:06:27;15.57;;;4.60;;
24147;SDS011;12309;51.450;-2.624;2023-04-08T01:09:00;12.57;;;5.00;;
24147;SDS011;12309;51.450;-2.624;2023-04-08T01:11:30;12.37;;;4.73;;
24147;SDS011;12309;51.450;-2.624;2023-04-08T01:13:58;11.67;;;4.93;;
24147;SDS011;12309;51.450;-2.624;2023-04-08T01:16:30;13.00;;;4.83;;
24147;SDS011;12309;51.450;-2.624;2023-04-08T01:18:57;11.87;;;5.10;;
24147;SDS011;12309;51.450;-2.624;2023-04-08T01:21:23;15.20;;;5.27;;
24147;SDS011;12309;51.450;-2.624;2023-04-08T01:24:00;9.50;;;4.90;;
24147;SDS011;12309;51.450;-2.624;2023-04-08T01:26:35;18.80;;;4.83;;
24147;SDS011;12309;51.450;-2.624;2023-04-08T01:29:02;11.13;;;4.80;;
24147;SDS011;12309;51.450;-2.624;2023-04-08T01:31:28;14.20;;;5.23;;
24147;SDS011;12309;51.450;-2.624;2023-04-08T01:33:55;14.10;;;5.37;;
24147;SDS011;12309;51.450;-2.624;2023-04-08T01:36:23;10.73;;;4.50;;
24147;SDS011;12309;51.450;-2.624;2023-04-08T01:38:50;10.17;;;4.70;;
24147;SDS011;12309;51.450;-2.624;2023-04-08T01:41:17;12.37;;;4.70;;
24147;SDS011;12309;51.450;-2.624;2023-04-08T01:43:45;10.10;;;3.87;;
24147;SDS011;12309;51.450;-2.624;2023-04-08T01:46:12;11.23;;;4.33;;
24147;SDS011;12309;51.450;-2.624;2023-04-08T01:48:39;11.03;;;4.07;;
24147;SDS011;12309;51.450;-2.624;2023-04-08T01:51:05;12.10;;;4.47;;
24147;SDS011;12309;51.450;-2.624;2023-04-08T01:53:33;8.13;;;4.23;;
24147;SDS011;12309;51.450;-2.624;2023-04-08T01:56:05;11.23;;;4.93;;
24147;SDS011;12309;51.450;-2.624;2023-04-08T01:58:36;14.17;;;5.03;;
24147;SDS011;12309;51.450;-2.624;2023-04-08T02:01:05;8.77;;;4.60;;
24147;SDS011;12309;51.450;-2.624;2023-04-08T02:03:35;8.77;;;4.43;;
24147;SDS011;12309;51.450;-2.624;2023-04-08T02:06:01;10.00;;;4.60;;
24147;SDS011;12309;51.450;-2.624;2023-04-08T02:08:26;10.10;;;5.07;;
24147;SDS011;12309;51.450;-2.624;2023-04-08T02:10:52;13.20;;;4.20;;
24147;SDS011;12309;51.450;-2.624;2023-04-08T02:13:18;9.53;;;3.80;;
24147;SDS011;12309;51.450;-2.624;2023-04-08T02:15:45;7.70;;;3.80;;
24147;SDS011;12309;51.450;-2.624;2023-04-08T02:18:16;7.90;;;3.77;;
24147;SDS011;12309;51.450;-2.624;2023-04-08T02:23:47;7.07;;;3.90;;
24147;SDS011;12309;51.450;-2.624;2023-04-08T02:26:15;10.43;;;3.60;;
24147;SDS011;12309;51.450;-2.624;2023-04-08T02:28:42;8.10;;;4.10;;
24147;SDS011;12309;51.450;-2.624;2023-04-08T02:31:10;8.20;;;3.33;;
24147;SDS011;12309;51.450;-2.624;2023-04-08T02:33:39;7.23;;;4.17;;
24147;SDS011;12309;51.450;-2.624;2023-04-08T02:36:06;7.70;;;3.50;;
24147;SDS011;12309;51.450;-2.624;2023-04-08T02:38:32;10.47;;;4.23;;
24147;SDS011;12309;51.450;-2.624;2023-04-08T02:40:58;15.33;;;4.37;;
24147;SDS011;12309;51.450;-2.624;2023-04-08T02:43:24;10.90;;;4.17;;
24147;SDS011;12309;51.450;-2.624;2023-04-08T02:45:56;8.47;;;4.10;;
24147;SDS011;12309;51.450;-2.624;2023-04-08T02:48:27;10.17;;;4.43;;
24147;SDS011;12309;51.450;-2.624;2023-04-08T02:50:53;13.40;;;5.17;;
24147;SDS011;12309;51.450;-2.624;2023-04-08T02:53:18;14.47;;;5.30;;
24147;SDS011;12309;51.450;-2.624;2023-04-08T02:55:44;12.03;;;5.70;;
24147;SDS011;12309;51.450;-2.624;2023-04-08T02:58:10;13.43;;;5.87;;
24147;SDS011;12309;51.450;-2.624;2023-04-08T03:00:35;10.50;;;5.10;;
24147;SDS011;12309;51.450;-2.624;2023-04-08T03:03:03;14.57;;;5.53;;
24147;SDS011;12309;51.450;-2.624;2023-04-08T03:05:30;13.60;;;5.47;;
24147;SDS011;12309;51.450;-2.624;2023-04-08T03:07:56;17.47;;;5.60;;
24147;SDS011;12309;51.450;-2.624;2023-04-08T03:10:21;12.90;;;5.00;;
24147;SDS011;12309;51.450;-2.624;2023-04-08T03:12:47;11.47;;;4.13;;
24147;SDS011;12309;51.450;-2.624;2023-04-08T03:15:13;10.43;;;4.70;;
24147;SDS011;12309;51.450;-2.624;2023-04-08T03:17:38;16.50;;;5.13;;
24147;SDS011;12309;51.450;-2.624;2023-04-08T03:20:05;13.70;;;5.50;;
24147;SDS011;12309;51.450;-2.624;2023-04-08T03:22:31;8.90;;;4.80;;
24147;SDS011;12309;51.450;-2.624;2023-04-08T03:24:57;12.83;;;5.10;;
24147;SDS011;12309;51.450;-2.624;2023-04-08T03:27:23;12.20;;;5.20;;
24147;SDS011;12309;51.450;-2.624;2023-04-08T03:29:48;10.63;;;4.90;;
24147;SDS011;12309;51.450;-2.624;2023-04-08T03:32:14;14.00;;;5.43;;
24147;SDS011;12309;51.450;-2.624;2023-04-08T03:34:40;13.30;;;4.97;;
24147;SDS011;12309;51.450;-2.624;2023-04-08T03:37:05;9.77;;;4.73;;
24147;SDS011;12309;51.450;-2.624;2023-04-08T03:39:31;10.13;;;4.40;;
24147;SDS011;12309;51.450;-2.624;2023-04-08T03:41:57;8.67;;;4.43;;
24147;SDS011;12309;51.450;-2.624;2023-04-08T03:44:25;9.87;;;4.50;;
24147;SDS011;12309;51.450;-2.624;2023-04-08T03:46:50;11.07;;;4.30;;
24147;SDS011;12309;51.450;-2.624;2023-04-08T03:49:16;10.70;;;4.53;;
24147;SDS011;12309;51.450;-2.624;2023-04-08T03:51:42;11.10;;;4.20;;
24147;SDS011;12309;51.450;-2.624;2023-04-08T03:54:07;9.87;;;3.97;;
24147;SDS011;12309;51.450;-2.624;2023-04-08T03:56:33;12.30;;;4.50;;
24147;SDS011;12309;51.450;-2.624;2023-04-08T03:58:59;10.57;;;4.10;;
24147;SDS011;12309;51.450;-2.624;2023-04-08T04:01:25;10.60;;;4.20;;
24147;SDS011;12309;51.450;-2.624;2023-04-08T04:03:50;10.83;;;4.00;;
24147;SDS011;12309;51.450;-2.624;2023-04-08T04:06:16;14.13;;;4.17;;
24147;SDS011;12309;51.450;-2.624;2023-04-08T04:08:42;13.70;;;4.50;;
24147;SDS011;12309;51.450;-2.624;2023-04-08T04:11:07;10.50;;;4.53;;
24147;SDS011;12309;51.450;-2.624;2023-04-08T04:13:33;11.40;;;4.30;;
24147;SDS011;12309;51.450;-2.624;2023-04-08T04:15:59;10.40;;;4.47;;
24147;SDS011;12309;51.450;-2.624;2023-04-08T04:18:25;11.17;;;4.20;;
24147;SDS011;12309;51.450;-2.624;2023-04-08T04:20:50;13.43;;;4.60;;
24147;SDS011;12309;51.450;-2.624;2023-04-08T04:23:16;16.30;;;4.27;;
24147;SDS011;12309;51.450;-2.624;2023-04-08T04:25:41;14.30;;;4.30;;
24147;SDS011;12309;51.450;-2.624;2023-04-08T04:28:08;10.40;;;4.57;;
24147;SDS011;12309;51.450;-2.624;2023-04-08T04:30:37;6.80;;;3.87;;
24147;SDS011;12309;51.450;-2.624;2023-04-08T04:33:03;13.33;;;4.43;;
24147;SDS011;12309;51.450;-2.624;2023-04-08T04:35:30;10.53;;;4.23;;
24147;SDS011;12309;51.450;-2.624;2023-04-08T04:37:55;10.80;;;3.73;;
24147;SDS011;12309;51.450;-2.624;2023-04-08T04:40:21;13.77;;;4.20;;
24147;SDS011;12309;51.450;-2.624;2023-04-08T04:42:47;11.40;;;4.27;;
24147;SDS011;12309;51.450;-2.624;2023-04-08T04:45:13;9.50;;;3.87;;
24147;SDS011;12309;51.450;-2.624;2023-04-08T04:47:39;7.60;;;4.07;;
24147;SDS011;12309;51.450;-2.624;2023-04-08T04:50:05;9.47;;;4.10;;
24147;SDS011;12309;51.450;-2.624;2023-04-08T04:52:31;12.23;;;4.23;;
24147;SDS011;12309;51.450;-2.624;2023-04-08T04:54:57;10.73;;;4.53;;
24147;SDS011;12309;51.450;-2.624;2023-04-08T04:57:23;13.23;;;5.10;;
24147;SDS011;12309;51.450;-2.624;2023-04-08T04:59:48;9.97;;;4.47;;
24147;SDS011;12309;51.450;-2.624;2023-04-08T05:02:14;13.93;;;5.03;;
24147;SDS011;12309;51.450;-2.624;2023-04-08T05:04:40;10.27;;;4.43;;
24147;SDS011;12309;51.450;-2.624;2023-04-08T05:07:06;9.03;;;4.53;;
24147;SDS011;12309;51.450;-2.624;2023-04-08T05:09:31;9.20;;;4.20;;
24147;SDS011;12309;51.450;-2.624;2023-04-08T05:11:57;10.93;;;4.43;;
24147;SDS011;12309;51.450;-2.624;2023-04-08T05:14:22;9.20;;;4.03;;
24147;SDS011;12309;51.450;-2.624;2023-04-08T05:16:48;7.03;;;4.03;;
24147;SDS011;12309;51.450;-2.624;2023-04-08T05:19:14;10.43;;;4.23;;
24147;SDS011;12309;51.450;-2.624;2023-04-08T05:21:39;10.20;;;4.27;;
24147;SDS011;12309;51.450;-2.624;2023-04-08T05:24:05;13.40;;;4.63;;
24147;SDS011;12309;51.450;-2.624;2023-04-08T05:26:31;9.70;;;4.40;;
24147;SDS011;12309;51.450;-2.624;2023-04-08T05:28:57;9.37;;;4.10;;
24147;SDS011;12309;51.450;-2.624;2023-04-08T05:31:22;11.53;;;4.37;;
24147;SDS011;12309;51.450;-2.624;2023-04-08T05:33:48;12.97;;;4.50;;
24147;SDS011;12309;51.450;-2.624;2023-04-08T05:36:13;12.57;;;4.50;;
24147;SDS011;12309;51.450;-2.624;2023-04-08T05:38:39;11.13;;;4.40;;
24147;SDS011;12309;51.450;-2.624;2023-04-08T05:41:07;10.57;;;4.27;;
24147;SDS011;12309;51.450;-2.624;2023-04-08T05:43:32;12.00;;;4.67;;
24147;SDS011;12309;51.450;-2.624;2023-04-08T05:45:58;12.27;;;4.40;;
24147;SDS011;12309;51.450;-2.624;2023-04-08T05:48:24;8.30;;;3.97;;
24147;SDS011;12309;51.450;-2.624;2023-04-08T05:50:49;12.20;;;4.17;;
24147;SDS011;12309;51.450;-2.624;2023-04-08T05:53:15;11.30;;;4.37;;
24147;SDS011;12309;51.450;-2.624;2023-04-08T05:55:41;10.40;;;4.20;;
24147;SDS011;12309;51.450;-2.624;2023-04-08T05:58:07;10.87;;;4.43;;
24147;SDS011;12309;51.450;-2.624;2023-04-08T06:00:33;14.63;;;4.67;;
24147;SDS011;12309;51.450;-2.624;2023-04-08T06:02:58;13.67;;;4.40;;
24147;SDS011;12309;51.450;-2.624;2023-04-08T06:05:24;15.17;;;4.77;;
24147;SDS011;12309;51.450;-2.624;2023-04-08T06:07:50;11.40;;;4.30;;
24147;SDS011;12309;51.450;-2.624;2023-04-08T06:10:15;14.17;;;4.07;;
24147;SDS011;12309;51.450;-2.624;2023-04-08T06:12:41;18.77;;;4.73;;
24147;SDS011;12309;51.450;-2.624;2023-04-08T06:15:07;13.27;;;4.20;;
24147;SDS011;12309;51.450;-2.624;2023-04-08T06:17:36;10.10;;;3.90;;
24147;SDS011;12309;51.450;-2.624;2023-04-08T06:20:03;9.57;;;3.90;;
24147;SDS011;12309;51.450;-2.624;2023-04-08T06:22:30;15.57;;;3.80;;
24147;SDS011;12309;51.450;-2.624;2023-04-08T06:24:55;11.13;;;4.70;;
24147;SDS011;12309;51.450;-2.624;2023-04-08T06:27:21;10.50;;;4.10;;
24147;SDS011;12309;51.450;-2.624;2023-04-08T06:29:47;12.07;;;4.20;;
24147;SDS011;12309;51.450;-2.624;2023-04-08T06:32:12;13.27;;;4.33;;
24147;SDS011;12309;51.450;-2.624;2023-04-08T06:34:38;14.63;;;4.33;;
24147;SDS011;12309;51.450;-2.624;2023-04-08T06:37:05;10.03;;;4.40;;
24147;SDS011;12309;51.450;-2.624;2023-04-08T06:39:31;8.40;;;4.40;;
24147;SDS011;12309;51.450;-2.624;2023-04-08T06:41:57;8.63;;;3.77;;
24147;SDS011;12309;51.450;-2.624;2023-04-08T06:44:23;13.33;;;5.10;;
24147;SDS011;12309;51.450;-2.624;2023-04-08T06:46:49;12.07;;;4.63;;
24147;SDS011;12309;51.450;-2.624;2023-04-08T06:49:15;7.30;;;3.83;;
24147;SDS011;12309;51.450;-2.624;2023-04-08T06:51:40;10.20;;;4.17;;
24147;SDS011;12309;51.450;-2.624;2023-04-08T06:54:06;12.27;;;4.40;;
24147;SDS011;12309;51.450;-2.624;2023-04-08T06:56:34;13.33;;;4.40;;
24147;SDS011;12309;51.450;-2.624;2023-04-08T06:58:59;8.87;;;4.50;;
24147;SDS011;12309;51.450;-2.624;2023-04-08T07:01:25;12.50;;;4.50;;
24147;SDS011;12309;51.450;-2.624;2023-04-08T07:03:51;11.10;;;4.30;;
24147;SDS011;12309;51.450;-2.624;2023-04-08T07:06:16;9.03;;;4.20;;
24147;SDS011;12309;51.450;-2.624;2023-04-08T07:08:42;10.63;;;4.67;;
24147;SDS011;12309;51.450;-2.624;2023-04-08T07:11:07;10.37;;;4.77;;
24147;SDS011;12309;51.450;-2.624;2023-04-08T07:13:33;15.70;;;4.70;;
24147;SDS011;12309;51.450;-2.624;2023-04-08T07:15:59;10.27;;;5.07;;
24147;SDS011;12309;51.450;-2.624;2023-04-08T07:18:25;8.90;;;4.40;;
24147;SDS011;12309;51.450;-2.624;2023-04-08T07:20:51;13.27;;;4.60;;
24147;SDS011;12309;51.450;-2.624;2023-04-08T07:23:18;11.30;;;4.70;;
24147;SDS011;12309;51.450;-2.624;2023-04-08T07:25:44;9.07;;;4.07;;
24147;SDS011;12309;51.450;-2.624;2023-04-08T07:28:10;7.90;;;3.80;;
24147;SDS011;12309;51.450;-2.624;2023-04-08T07:30:36;9.03;;;3.77;;
24147;SDS011;12309;51.450;-2.624;2023-04-08T07:33:02;10.43;;;3.93;;
24147;SDS011;12309;51.450;-2.624;2023-04-08T07:35:27;9.47;;;3.77;;
24147;SDS011;12309;51.450;-2.624;2023-04-08T07:37:53;7.47;;;3.40;;
24147;SDS011;12309;51.450;-2.624;2023-04-08T07:40:19;8.10;;;3.43;;
24147;SDS011;12309;51.450;-2.624;2023-04-08T07:42:46;7.00;;;3.50;;
24147;SDS011;12309;51.450;-2.624;2023-04-08T07:45:11;7.30;;;3.13;;
24147;SDS011;12309;51.450;-2.624;2023-04-08T07:47:37;7.77;;;3.50;;
24147;SDS011;12309;51.450;-2.624;2023-04-08T07:50:03;9.60;;;2.93;;
24147;SDS011;12309;51.450;-2.624;2023-04-08T07:52:29;7.90;;;3.30;;
24147;SDS011;12309;51.450;-2.624;2023-04-08T07:54:55;6.27;;;2.93;;
24147;SDS011;12309;51.450;-2.624;2023-04-08T07:57:20;5.93;;;3.27;;
24147;SDS011;12309;51.450;-2.624;2023-04-08T07:59:46;7.43;;;3.07;;
24147;SDS011;12309;51.450;-2.624;2023-04-08T08:02:12;9.30;;;3.17;;
24147;SDS011;12309;51.450;-2.624;2023-04-08T08:04:38;6.60;;;3.10;;
24147;SDS011;12309;51.450;-2.624;2023-04-08T08:07:03;9.20;;;3.27;;
24147;SDS011;12309;51.450;-2.624;2023-04-08T08:09:29;8.73;;;3.33;;
24147;SDS011;12309;51.450;-2.624;2023-04-08T08:11:55;7.70;;;2.80;;
24147;SDS011;12309;51.450;-2.624;2023-04-08T08:14:21;9.47;;;3.40;;
24147;SDS011;12309;51.450;-2.624;2023-04-08T08:16:47;5.37;;;2.70;;
24147;SDS011;12309;51.450;-2.624;2023-04-08T08:19:13;8.68;;;2.88;;
24147;SDS011;12309;51.450;-2.624;2023-04-08T08:21:39;5.78;;;2.80;;
24147;SDS011;12309;51.450;-2.624;2023-04-08T08:24:05;6.55;;;3.55;;
24147;SDS011;12309;51.450;-2.624;2023-04-08T08:26:31;7.35;;;2.85;;
24147;SDS011;12309;51.450;-2.624;2023-04-08T08:29:00;4.75;;;2.53;;
24147;SDS011;12309;51.450;-2.624;2023-04-08T08:31:26;6.88;;;2.90;;
24147;SDS011;12309;51.450;-2.624;2023-04-08T08:33:52;6.28;;;2.72;;
24147;SDS011;12309;51.450;-2.624;2023-04-08T08:36:17;5.32;;;2.70;;
24147;SDS011;12309;51.450;-2.624;2023-04-08T08:38:43;5.47;;;2.33;;
24147;SDS011;12309;51.450;-2.624;2023-04-08T08:41:08;8.48;;;3.17;;
24147;SDS011;12309;51.450;-2.624;2023-04-08T08:43:34;4.45;;;2.42;;
24147;SDS011;12309;51.450;-2.624;2023-04-08T08:46:00;4.43;;;2.20;;
24147;SDS011;12309;51.450;-2.624;2023-04-08T08:48:26;6.15;;;2.50;;
24147;SDS011;12309;51.450;-2.624;2023-04-08T08:50:52;5.63;;;2.70;;
24147;SDS011;12309;51.450;-2.624;2023-04-08T08:53:17;3.95;;;2.28;;
24147;SDS011;12309;51.450;-2.624;2023-04-08T08:55:44;6.20;;;2.55;;
24147;SDS011;12309;51.450;-2.624;2023-04-08T08:58:10;6.47;;;2.08;;
24147;SDS011;12309;51.450;-2.624;2023-04-08T09:00:36;6.22;;;2.33;;
24147;SDS011;12309;51.450;-2.624;2023-04-08T09:03:14;6.80;;;2.08;;
24147;SDS011;12309;51.450;-2.624;2023-04-08T09:05:50;9.57;;;2.30;;
24147;SDS011;12309;51.450;-2.624;2023-04-08T09:08:30;8.07;;;2.40;;
24147;SDS011;12309;51.450;-2.624;2023-04-08T09:11:16;4.80;;;2.20;;
24147;SDS011;12309;51.450;-2.624;2023-04-08T09:13:43;4.63;;;2.15;;
24147;SDS011;12309;51.450;-2.624;2023-04-08T09:16:10;6.82;;;2.63;;
24147;SDS011;12309;51.450;-2.624;2023-04-08T09:18:38;6.10;;;2.78;;
24147;SDS011;12309;51.450;-2.624;2023-04-08T09:21:05;6.15;;;2.50;;
24147;SDS011;12309;51.450;-2.624;2023-04-08T09:26:23;7.10;;;2.78;;
24147;SDS011;12309;51.450;-2.624;2023-04-08T09:28:59;8.32;;;2.80;;
24147;SDS011;12309;51.450;-2.624;2023-04-08T09:31:35;6.43;;;2.85;;
24147;SDS011;12309;51.450;-2.624;2023-04-08T09:34:12;3.83;;;2.40;;
24147;SDS011;12309;51.450;-2.624;2023-04-08T09:36:44;6.68;;;2.50;;
24147;SDS011;12309;51.450;-2.624;2023-04-08T09:39:11;7.85;;;2.90;;
24147;SDS011;12309;51.450;-2.624;2023-04-08T09:41:37;6.00;;;2.65;;
24147;SDS011;12309;51.450;-2.624;2023-04-08T09:44:04;5.90;;;2.58;;
24147;SDS011;12309;51.450;-2.624;2023-04-08T09:49:25;5.00;;;2.40;;
24147;SDS011;12309;51.450;-2.624;2023-04-08T09:51:58;6.95;;;2.95;;
24147;SDS011;12309;51.450;-2.624;2023-04-08T10:00:10;7.45;;;2.65;;
24147;SDS011;12309;51.450;-2.624;2023-04-08T10:05:46;6.70;;;1.80;;
24147;SDS011;12309;51.450;-2.624;2023-04-08T10:08:13;8.38;;;2.25;;
24147;SDS011;12309;51.450;-2.624;2023-04-08T10:10:40;6.78;;;2.67;;
24147;SDS011;12309;51.450;-2.624;2023-04-08T10:13:06;7.25;;;2.97;;
24147;SDS011;12309;51.450;-2.624;2023-04-08T10:15:32;8.23;;;2.83;;
24147;SDS011;12309;51.450;-2.624;2023-04-08T10:25:34;4.68;;;2.40;;
24147;SDS011;12309;51.450;-2.624;2023-04-08T10:28:22;5.45;;;2.47;;
24147;SDS011;12309;51.450;-2.624;2023-04-08T10:30:50;7.47;;;2.88;;
24147;SDS011;12309;51.450;-2.624;2023-04-08T10:33:21;4.18;;;2.38;;
24147;SDS011;12309;51.450;-2.624;2023-04-08T10:35:59;6.38;;;2.28;;
24147;SDS011;12309;51.450;-2.624;2023-04-08T10:38:39;5.22;;;2.65;;
24147;SDS011;12309;51.450;-2.624;2023-04-08T10:41:09;3.38;;;2.05;;
24147;SDS011;12309;51.450;-2.624;2023-04-08T10:43:37;5.22;;;2.30;;
24147;SDS011;12309;51.450;-2.624;2023-04-08T10:46:03;4.55;;;2.55;;
24147;SDS011;12309;51.450;-2.624;2023-04-08T10:48:29;3.35;;;2.10;;
24147;SDS011;12309;51.450;-2.624;2023-04-08T10:50:59;4.93;;;2.25;;
24147;SDS011;12309;51.450;-2.624;2023-04-08T10:53:29;6.22;;;2.20;;
24147;SDS011;12309;51.450;-2.624;2023-04-08T10:56:04;4.63;;;2.15;;
24147;SDS011;12309;51.450;-2.624;2023-04-08T10:58:46;5.47;;;2.05;;
24147;SDS011;12309;51.450;-2.624;2023-04-08T11:01:16;3.80;;;2.00;;
24147;SDS011;12309;51.450;-2.624;2023-04-08T11:03:43;6.05;;;2.22;;
24147;SDS011;12309;51.450;-2.624;2023-04-08T11:06:08;7.90;;;2.55;;
24147;SDS011;12309;51.450;-2.624;2023-04-08T11:08:35;4.65;;;2.00;;
24147;SDS011;12309;51.450;-2.624;2023-04-08T11:11:01;5.85;;;2.10;;
24147;SDS011;12309;51.450;-2.624;2023-04-08T11:13:29;6.70;;;2.40;;
24147;SDS011;12309;51.450;-2.624;2023-04-08T11:15:55;4.50;;;2.25;;
24147;SDS011;12309;51.450;-2.624;2023-04-08T11:18:23;5.05;;;2.40;;
24147;SDS011;12309;51.450;-2.624;2023-04-08T11:20:50;5.72;;;2.60;;
24147;SDS011;12309;51.450;-2.624;2023-04-08T11:23:16;4.90;;;2.22;;
24147;SDS011;12309;51.450;-2.624;2023-04-08T11:25:42;5.22;;;2.40;;
24147;SDS011;12309;51.450;-2.624;2023-04-08T11:28:10;5.25;;;2.40;;
24147;SDS011;12309;51.450;-2.624;2023-04-08T11:30:37;4.07;;;2.92;;
24147;SDS011;12309;51.450;-2.624;2023-04-08T11:33:04;5.25;;;2.65;;
24147;SDS011;12309;51.450;-2.624;2023-04-08T11:35:31;6.82;;;2.33;;
24147;SDS011;12309;51.450;-2.624;2023-04-08T11:37:56;6.22;;;2.80;;
24147;SDS011;12309;51.450;-2.624;2023-04-08T11:40:22;8.02;;;2.78;;
24147;SDS011;12309;51.450;-2.624;2023-04-08T11:42:49;4.53;;;2.38;;
24147;SDS011;12309;51.450;-2.624;2023-04-08T11:45:16;5.90;;;2.78;;
24147;SDS011;12309;51.450;-2.624;2023-04-08T11:47:43;4.45;;;2.38;;
24147;SDS011;12309;51.450;-2.624;2023-04-08T11:50:10;5.95;;;2.30;;
24147;SDS011;12309;51.450;-2.624;2023-04-08T11:52:39;8.05;;;2.60;;
24147;SDS011;12309;51.450;-2.624;2023-04-08T11:55:11;5.10;;;2.95;;
24147;SDS011;12309;51.450;-2.624;2023-04-08T11:57:45;4.93;;;2.47;;
24147;SDS011;12309;51.450;-2.624;2023-04-08T12:00:12;4.40;;;2.30;;
24147;SDS011;12309;51.450;-2.624;2023-04-08T12:02:38;4.90;;;2.50;;
24147;SDS011;12309;51.450;-2.624;2023-04-08T12:05:04;5.95;;;2.22;;
24147;SDS011;12309;51.450;-2.624;2023-04-08T12:07:30;5.13;;;2.80;;
24147;SDS011;12309;51.450;-2.624;2023-04-08T12:09:56;5.05;;;2.20;;
24147;SDS011;12309;51.450;-2.624;2023-04-08T12:12:22;6.00;;;2.28;;
24147;SDS011;12309;51.450;-2.624;2023-04-08T12:14:47;4.53;;;1.90;;
24147;SDS011;12309;51.450;-2.624;2023-04-08T12:17:13;7.40;;;2.60;;
24147;SDS011;12309;51.450;-2.624;2023-04-08T12:19:39;7.75;;;2.60;;
24147;SDS011;12309;51.450;-2.624;2023-04-08T12:22:05;5.78;;;2.63;;
24147;SDS011;12309;51.450;-2.624;2023-04-08T12:24:31;4.47;;;2.35;;
24147;SDS011;12309;51.450;-2.624;2023-04-08T12:26:57;4.57;;;2.40;;
24147;SDS011;12309;51.450;-2.624;2023-04-08T12:29:22;5.35;;;2.50;;
24147;SDS011;12309;51.450;-2.624;2023-04-08T12:31:48;7.28;;;2.60;;
24147;SDS011;12309;51.450;-2.624;2023-04-08T12:34:14;3.35;;;1.90;;
24147;SDS011;12309;51.450;-2.624;2023-04-08T12:36:40;6.80;;;2.38;;
24147;SDS011;12309;51.450;-2.624;2023-04-08T12:39:08;5.22;;;2.15;;
24147;SDS011;12309;51.450;-2.624;2023-04-08T12:41:34;5.90;;;2.75;;
24147;SDS011;12309;51.450;-2.624;2023-04-08T12:44:00;3.30;;;2.05;;
24147;SDS011;12309;51.450;-2.624;2023-04-08T12:46:25;5.68;;;2.20;;
24147;SDS011;12309;51.450;-2.624;2023-04-08T12:48:52;7.38;;;2.30;;
24147;SDS011;12309;51.450;-2.624;2023-04-08T12:51:18;3.45;;;2.30;;
24147;SDS011;12309;51.450;-2.624;2023-04-08T12:53:44;4.60;;;2.00;;
24147;SDS011;12309;51.450;-2.624;2023-04-08T12:56:09;4.50;;;2.17;;
24147;SDS011;12309;51.450;-2.624;2023-04-08T12:58:35;3.83;;;2.30;;
24147;SDS011;12309;51.450;-2.624;2023-04-08T13:01:01;6.47;;;2.33;;
24147;SDS011;12309;51.450;-2.624;2023-04-08T13:03:26;4.65;;;2.10;;
24147;SDS011;12309;51.450;-2.624;2023-04-08T13:05:54;4.88;;;2.33;;
24147;SDS011;12309;51.450;-2.624;2023-04-08T13:08:20;4.10;;;2.20;;
24147;SDS011;12309;51.450;-2.624;2023-04-08T13:10:47;4.65;;;2.20;;
24147;SDS011;12309;51.450;-2.624;2023-04-08T13:13:12;4.60;;;2.03;;
24147;SDS011;12309;51.450;-2.624;2023-04-08T13:15:38;4.50;;;2.10;;
24147;SDS011;12309;51.450;-2.624;2023-04-08T13:18:04;3.17;;;1.90;;
24147;SDS011;12309;51.450;-2.624;2023-04-08T13:20:30;9.20;;;2.50;;
24147;SDS011;12309;51.450;-2.624;2023-04-08T13:22:55;7.70;;;2.63;;
24147;SDS011;12309;51.450;-2.624;2023-04-08T13:25:21;4.72;;;2.38;;
24147;SDS011;12309;51.450;-2.624;2023-04-08T13:27:47;3.25;;;2.40;;
24147;SDS011;12309;51.450;-2.624;2023-04-08T13:30:13;7.13;;;2.05;;
24147;SDS011;12309;51.450;-2.624;2023-04-08T13:32:38;4.63;;;2.13;;
24147;SDS011;12309;51.450;-2.624;2023-04-08T13:35:04;5.15;;;2.35;;
24147;SDS011;12309;51.450;-2.624;2023-04-08T13:37:30;4.15;;;2.45;;
24147;SDS011;12309;51.450;-2.624;2023-04-08T13:39:56;3.97;;;2.17;;
24147;SDS011;12309;51.450;-2.624;2023-04-08T13:42:21;6.80;;;2.30;;
24147;SDS011;12309;51.450;-2.624;2023-04-08T13:44:47;4.45;;;2.58;;
24147;SDS011;12309;51.450;-2.624;2023-04-08T13:47:13;4.40;;;1.80;;
24147;SDS011;12309;51.450;-2.624;2023-04-08T13:49:39;3.05;;;1.90;;
24147;SDS011;12309;51.450;-2.624;2023-04-08T13:52:05;8.73;;;2.83;;
24147;SDS011;12309;51.450;-2.624;2023-04-08T13:54:31;6.78;;;2.90;;
24147;SDS011;12309;51.450;-2.624;2023-04-08T13:56:57;5.57;;;2.72;;
24147;SDS011;12309;51.450;-2.624;2023-04-08T13:59:23;5.18;;;2.35;;
24147;SDS011;12309;51.450;-2.624;2023-04-08T14:01:48;6.18;;;2.75;;
24147;SDS011;12309;51.450;-2.624;2023-04-08T14:04:18;7.85;;;2.88;;
24147;SDS011;12309;51.450;-2.624;2023-04-08T14:06:44;6.40;;;2.85;;
24147;SDS011;12309;51.450;-2.624;2023-04-08T14:09:10;11.63;;;2.70;;
24147;SDS011;12309;51.450;-2.624;2023-04-08T14:11:36;6.53;;;2.70;;
24147;SDS011;12309;51.450;-2.624;2023-04-08T14:14:02;3.47;;;2.22;;
24147;SDS011;12309;51.450;-2.624;2023-04-08T14:16:28;3.13;;;2.20;;
24147;SDS011;12309;51.450;-2.624;2023-04-08T14:18:55;5.35;;;2.80;;
24147;SDS011;12309;51.450;-2.624;2023-04-08T14:21:21;7.38;;;2.83;;
24147;SDS011;12309;51.450;-2.624;2023-04-08T14:23:47;6.50;;;2.70;;
24147;SDS011;12309;51.450;-2.624;2023-04-08T14:26:13;4.30;;;2.17;;
24147;SDS011;12309;51.450;-2.624;2023-04-08T14:28:38;5.63;;;2.50;;
24147;SDS011;12309;51.450;-2.624;2023-04-08T14:31:04;5.40;;;2.33;;
24147;SDS011;12309;51.450;-2.624;2023-04-08T14:33:30;6.60;;;2.50;;
24147;SDS011;12309;51.450;-2.624;2023-04-08T14:35:56;4.82;;;2.30;;
24147;SDS011;12309;51.450;-2.624;2023-04-08T14:38:23;5.93;;;2.40;;
24147;SDS011;12309;51.450;-2.624;2023-04-08T14:40:48;6.57;;;2.45;;
24147;SDS011;12309;51.450;-2.624;2023-04-08T14:43:14;4.38;;;2.30;;
24147;SDS011;12309;51.450;-2.624;2023-04-08T14:45:40;9.93;;;3.15;;
24147;SDS011;12309;51.450;-2.624;2023-04-08T14:48:06;8.40;;;2.38;;
24147;SDS011;12309;51.450;-2.624;2023-04-08T14:50:31;3.47;;;2.03;;